ěÝzenÝ letovÚho provozu ╚eskÚ republiky
Letiste: LKCV Aktualizace: 19.06.2024 02:29:39  UTC
 METAR LKCV 19.06. 02:30 ...
METAR LKCV 190230Z 30003KT 250V330 CAVOK 18/15 Q1012 NOSIG RMK BLU BLU=
 TAF LKCV 18.06. 23:00 ...
TAF LKCV 182300Z 1900/2000 15008KT CAVOK      BECMG 1906/1908 28010KT      TEMPO 1911/1917 29016KT SHRA BKN030TCU      PROB30 TEMPO 1911/1917 29018KT 7000 TSRA SCT035CB=